Home > Products > Valid Products > TAF

000
FTUS44 KLUB 211500 AAC
TAFCDS
TAF AMD
KCDS 211512Z 2115/2212 34006KT 2SM BR OVC004
      TEMPO 2115/2117 1/2SM FG OVC002
     FM211700 33006KT P6SM FEW015 SCT250
     FM212000 15005KT P6SM BKN250
     FM220300 VRB06KT P6SM OVC020
      TEMPO 2208/2212 -TSRA OVC040CB=



000
FTUS44 KLUB 211400 AAA
TAFLBB
TAF AMD
KLBB 211454Z 2115/2212 VRB06KT P6SM BKN250
     FM211800 15006KT P6SM BKN200
     FM220300 12005KT P6SM OVC020=



000
FTUS44 KLUB 211400 AAB
TAFCDS
TAF AMD
KCDS 211446Z 2115/2212 34006KT 3SM BR OVC004
      TEMPO 2115/2117 2SM BR OVC002
     FM211700 33006KT P6SM FEW015 SCT250
     FM212000 15005KT P6SM BKN250
     FM220300 VRB06KT P6SM OVC020
      TEMPO 2208/2212 -TSRA OVC040CB=



000
FTUS44 KLUB 211300 AAA
TAFCDS
TAF AMD
KCDS 211342Z 2114/2212 34006KT 4SM BR BKN006 BKN250
     FM211700 33006KT P6SM FEW015 SCT250
     FM212000 15005KT P6SM BKN250
     FM220300 VRB06KT P6SM OVC020
      TEMPO 2208/2212 -TSRA OVC040CB=



000
FTUS44 KLUB 211100
TAFLBB
TAF
KLBB 211120Z 2112/2212 VRB06KT P6SM FEW010 FEW250
     FM211800 15006KT P6SM BKN200
     FM220300 12005KT P6SM OVC020=



000
FTUS44 KLUB 211100
TAFCDS
TAF
KCDS 211120Z 2112/2212 34006KT 4SM BR SCT008 SCT250
     FM211700 33006KT P6SM FEW015 SCT250
     FM212000 15005KT P6SM BKN250
     FM220300 VRB06KT P6SM OVC020
      TEMPO 2208/2212 -TSRA OVC040CB=



000
FTUS44 KLUB 210500
TAFLBB
TAF
KLBB 210520Z 2106/2206 VRB06KT P6SM FEW250
     FM212000 16009KT P6SM FEW010 BKN200=



000
FTUS44 KLUB 210500
TAFCDS
TAF
KCDS 210520Z 2106/2206 01005KT P6SM FEW015 FEW250
     FM211200 35004KT 3SM BR SCT008 SCT250
     FM211600 16007KT P6SM FEW015 BKN250=



000
FTUS44 KLUB 202300
TAFLBB
TAF
KLBB 202320Z 2100/2124 29008KT P6SM FEW250=



000
FTUS44 KLUB 202300
TAFCDS
TAF
KCDS 202320Z 2100/2124 03006KT P6SM FEW250
     FM211100 36004KT 3SM BR SCT008 BKN250
     FM211600 14007KT P6SM FEW015 BKN250=



000
FTUS44 KLUB 201700
TAFLBB
TAF
KLBB 201720Z 2018/2118 28009KT P6SM SCT200=



000
FTUS44 KLUB 201700
TAFCDS
TAF
KCDS 201720Z 2018/2118 VRB05KT P6SM SCT200
     FM211100 36004KT 4SM BR BKN250
     FM211600 13007KT P6SM BKN250=



000
FTUS44 KLUB 201100
TAFLBB
TAF
KLBB 201129Z 2012/2112 24008KT P6SM SCT200=



000
FTUS44 KLUB 201100
TAFCDS
TAF
KCDS 201129Z 2012/2112 12005KT P6SM SCT200=



000
FTUS44 KLUB 200500
TAFLBB
TAF
KLBB 200520Z 2006/2106 17006KT P6SM BKN200=



000
FTUS44 KLUB 200500
TAFCDS
TAF
KCDS 200520Z 2006/2106 12005KT P6SM SCT200=



000
FTUS44 KLUB 192300
TAFCDS
TAF
KCDS 192320Z 2000/2024 11004KT P6SM SCT200=



000
FTUS44 KLUB 192300
TAFLBB
TAF
KLBB 192320Z 2000/2024 19006KT P6SM SCT200=



000
FTUS44 KLUB 191700
TAFCDS
TAF
KCDS 191720Z 1918/2018 06009KT P6SM SCT200=



000
FTUS44 KLUB 191700
TAFLBB
TAF
KLBB 191720Z 1918/2018 18009KT P6SM SCT200=



000
FTUS44 KLUB 191100
TAFCDS
TAF
KCDS 191120Z 1912/2012 34011KT P6SM SCT250=



000
FTUS44 KLUB 191100
TAFLBB
TAF
KLBB 191120Z 1912/2012 34011KT P6SM SCT250=



000
FTUS44 KLUB 190500
TAFCDS
TAF
KCDS 190528Z 1906/2006 24010KT P6SM FEW200
     FM191500 01010KT P6SM SCT200=



000
FTUS44 KLUB 190500
TAFLBB
TAF
KLBB 190528Z 1906/2006 25010KT P6SM FEW200
     FM191500 36011KT P6SM SCT200=



000
FTUS44 KLUB 182300
TAFCDS
TAF
KCDS 182333Z 1900/1924 23010KT P6SM FEW300
     FM191500 01009KT P6SM SCT300=



000
FTUS44 KLUB 182300
TAFLBB
TAF
KLBB 182333Z 1900/1924 24010KT P6SM FEW300
     FM191500 36011KT P6SM SCT300=



000
FTUS44 KLUB 181700
TAFCDS
TAF
KCDS 181728Z 1818/1918 23016KT P6SM SKC
     FM190600 27008KT P6SM FEW300=



000
FTUS44 KLUB 181700
TAFLBB
TAF
KLBB 181728Z 1818/1918 23016KT P6SM SKC
     FM190600 28008KT P6SM FEW350=



    US Dept of Commerce
    National Oceanic and Atmospheric Administration
    National Weather Service
    1325 East West Highway
    Silver Spring, MD 20910
    Page Author: NWS Internet Services Team
Disclaimer
Information Quality
Credits
Glossary
Privacy Policy
Freedom of Information Act (FOIA)
About Us
Career Opportunities